Time;durP1;ratioP1;P1;durP2;ratioP2;P2;SDS_P1;SDS_P2;PMS_P1;PMS_P2;Temp;Humidity;BMP_temperature;BMP_pressure;BME280_temperature;BME280_humidity;BME280_pressure;Samples;Min_cycle;Max_cycle;Signal;HPM_P1;HPM_P2
2023/04/27 00:00:35;;;;;;;8.63;4.50;;;6.00;98.60;;;;;;6241619;23;20026;-74
2023/04/27 00:03:04;;;;;;;5.43;4.27;;;5.90;98.80;;;;;;6242891;22;20524;-74
2023/04/27 00:05:33;;;;;;;6.47;3.73;;;5.90;98.90;;;;;;6242227;22;20000;-74
2023/04/27 00:07:59;;;;;;;11.43;3.87;;;5.90;99.10;;;;;;6243090;22;20010;-75
2023/04/27 00:10:24;;;;;;;10.63;5.00;;;5.80;99.20;;;;;;6242170;23;20087;-74
2023/04/27 00:12:50;;;;;;;9.53;4.57;;;5.80;99.30;;;;;;6242386;23;20030;-74
2023/04/27 00:15:15;;;;;;;9.20;3.77;;;5.80;99.40;;;;;;6242932;23;20000;-73
2023/04/27 00:17:42;;;;;;;9.13;4.53;;;5.70;99.50;;;;;;6242696;23;20003;-74
2023/04/27 00:20:10;;;;;;;6.77;3.90;;;5.70;99.60;;;;;;6242617;22;20427;-74
2023/04/27 00:22:37;;;;;;;7.30;4.00;;;5.70;99.70;;;;;;6242463;22;20008;-74
2023/04/27 00:25:02;;;;;;;4.73;4.03;;;5.60;99.90;;;;;;6242538;22;20000;-74
2023/04/27 00:27:28;;;;;;;6.83;4.13;;;5.60;99.90;;;;;;6243085;23;20333;-74
2023/04/27 00:29:53;;;;;;;5.03;3.53;;;5.50;99.90;;;;;;6241819;23;20007;-74
2023/04/27 00:32:19;;;;;;;6.07;3.90;;;5.50;99.90;;;;;;6242039;23;19996;-74
2023/04/27 00:34:44;;;;;;;9.10;4.60;;;5.40;99.90;;;;;;6242262;23;20303;-74
2023/04/27 00:37:10;;;;;;;8.53;4.73;;;5.40;99.90;;;;;;6242682;23;19997;-74
2023/04/27 00:39:36;;;;;;;12.27;4.73;;;5.30;99.90;;;;;;6242235;22;20333;-74
2023/04/27 00:42:01;;;;;;;7.97;4.67;;;5.30;99.90;;;;;;6240799;23;20492;-74
2023/04/27 00:44:27;;;;;;;9.20;4.87;;;5.30;99.90;;;;;;6241615;23;20000;-74
2023/04/27 00:46:53;;;;;;;8.23;4.57;;;5.30;99.90;;;;;;6242199;23;20429;-73
2023/04/27 00:49:19;;;;;;;8.00;4.10;;;5.20;99.90;;;;;;6242110;22;20042;-74
2023/04/27 00:51:46;;;;;;;10.83;4.03;;;5.20;99.90;;;;;;6242281;22;20008;-74
2023/04/27 00:54:13;;;;;;;6.17;3.73;;;5.10;99.90;;;;;;6241996;22;20007;-74
2023/04/27 00:56:40;;;;;;;6.33;4.10;;;5.10;99.90;;;;;;6242260;22;20080;-74
2023/04/27 00:59:05;;;;;;;6.97;4.77;;;5.10;99.90;;;;;;6240726;22;20005;-74
2023/04/27 01:01:31;;;;;;;7.67;5.17;;;5.00;99.90;;;;;;6241905;23;20078;-74
2023/04/27 01:03:56;;;;;;;6.37;4.53;;;5.00;99.90;;;;;;6240437;23;20370;-74
2023/04/27 01:06:22;;;;;;;6.30;3.90;;;5.00;99.90;;;;;;6239536;23;20502;-74
2023/04/27 01:08:48;;;;;;;8.30;4.70;;;5.00;99.90;;;;;;6242219;23;20010;-74
2023/04/27 01:11:13;;;;;;;6.03;4.40;;;4.90;99.90;;;;;;6241771;23;20035;-74
2023/04/27 01:13:39;;;;;;;5.63;4.30;;;4.90;99.90;;;;;;6241565;23;20071;-74
2023/04/27 01:16:05;;;;;;;6.77;4.23;;;4.90;99.90;;;;;;6242306;22;20001;-74
2023/04/27 01:18:30;;;;;;;5.90;4.30;;;4.80;99.90;;;;;;6242158;23;20010;-74
2023/04/27 01:20:56;;;;;;;6.67;4.10;;;4.80;99.90;;;;;;6242120;23;20007;-74
2023/04/27 01:23:22;;;;;;;10.13;4.50;;;4.70;99.90;;;;;;6241945;23;20036;-75
2023/04/27 01:25:48;;;;;;;5.40;3.90;;;4.70;99.90;;;;;;6241555;22;20000;-74
2023/04/27 01:28:13;;;;;;;6.37;4.20;;;4.70;99.90;;;;;;6241944;23;20034;-74
2023/04/27 01:30:39;;;;;;;7.50;4.93;;;4.60;99.90;;;;;;6242068;23;20008;-75
2023/04/27 01:33:04;;;;;;;8.67;4.40;;;4.60;99.90;;;;;;6240166;23;20035;-74
2023/04/27 01:35:30;;;;;;;5.23;4.27;;;4.60;99.90;;;;;;6243452;23;20417;-74
2023/04/27 01:37:56;;;;;;;6.87;4.30;;;4.60;99.90;;;;;;6244005;22;20042;-74
2023/04/27 01:40:22;;;;;;;5.60;4.33;;;4.50;99.90;;;;;;6243240;23;20373;-74
2023/04/27 01:42:47;;;;;;;6.80;4.57;;;4.50;99.90;;;;;;6243812;23;20005;-74
2023/04/27 01:45:13;;;;;;;8.70;5.10;;;4.50;99.90;;;;;;6243781;23;20119;-74
2023/04/27 01:47:38;;;;;;;7.80;4.90;;;4.50;99.90;;;;;;6243810;23;20108;-74
2023/04/27 01:50:05;;;;;;;7.30;4.37;;;4.40;99.90;;;;;;6243802;22;20006;-74
2023/04/27 01:52:30;;;;;;;7.03;4.23;;;4.40;99.90;;;;;;6243975;22;20004;-74
2023/04/27 01:54:56;;;;;;;7.60;4.37;;;4.40;99.90;;;;;;6243108;23;20032;-74
2023/04/27 01:57:21;;;;;;;6.60;4.90;;;4.40;99.90;;;;;;6243495;23;19996;-74
2023/04/27 01:59:47;;;;;;;8.50;5.23;;;4.30;99.90;;;;;;6243709;23;20000;-74
2023/04/27 02:02:12;;;;;;;6.43;4.40;;;4.30;99.90;;;;;;6243612;23;20004;-74
2023/04/27 02:04:38;;;;;;;7.83;4.97;;;4.30;99.90;;;;;;6242410;23;20023;-74
2023/04/27 02:07:03;;;;;;;7.30;4.93;;;4.20;99.90;;;;;;6243912;23;20321;-74
2023/04/27 02:09:29;;;;;;;9.10;4.87;;;4.20;99.90;;;;;;6243136;23;20075;-74
2023/04/27 02:11:54;;;;;;;7.83;4.50;;;4.20;99.90;;;;;;6243500;23;20004;-74
2023/04/27 02:14:20;;;;;;;10.23;5.97;;;4.10;99.90;;;;;;6243625;23;20004;-74
2023/04/27 02:16:45;;;;;;;8.90;5.07;;;4.10;99.90;;;;;;6241825;23;20011;-74
2023/04/27 02:19:11;;;;;;;9.13;5.03;;;4.10;99.90;;;;;;6242040;23;20008;-75
2023/04/27 02:21:39;;;;;;;6.20;4.37;;;4.10;99.90;;;;;;6243662;23;20008;-74
2023/04/27 02:24:05;;;;;;;8.23;5.23;;;4.10;99.90;;;;;;6243133;22;20081;-74
2023/04/27 02:26:31;;;;;;;7.03;4.97;;;4.00;99.90;;;;;;6243742;22;20007;-74
2023/04/27 02:28:56;;;;;;;10.27;5.20;;;4.00;99.90;;;;;;6243460;22;20000;-73
2023/04/27 02:31:22;;;;;;;6.50;4.97;;;4.00;99.90;;;;;;6243427;23;20038;-73
2023/04/27 02:33:48;;;;;;;6.37;4.30;;;4.00;99.90;;;;;;6243466;23;20066;-74
2023/04/27 02:36:13;;;;;;;6.13;4.87;;;4.00;99.90;;;;;;6243317;23;20004;-74
2023/04/27 02:38:39;;;;;;;7.97;5.17;;;4.00;99.90;;;;;;6242791;23;20386;-74
2023/04/27 02:41:04;;;;;;;9.67;4.33;;;3.90;99.90;;;;;;6242052;23;20422;-73
2023/04/27 02:43:30;;;;;;;7.20;4.60;;;3.90;99.90;;;;;;6242917;23;20595;-74
2023/04/27 02:45:55;;;;;;;10.40;4.67;;;3.90;99.90;;;;;;6242123;23;20036;-74
2023/04/27 02:48:21;;;;;;;10.73;4.53;;;3.80;99.90;;;;;;6243782;23;19996;-74
2023/04/27 02:50:46;;;;;;;9.97;5.40;;;3.90;99.90;;;;;;6243208;23;20008;-74
2023/04/27 02:53:12;;;;;;;6.20;4.30;;;3.80;99.90;;;;;;6241307;23;20024;-73
2023/04/27 02:55:44;;;;;;;8.67;4.90;;;3.80;99.90;;;;;;6241723;23;20000;-74
2023/04/27 02:58:09;;;;;;;6.37;4.60;;;3.80;99.90;;;;;;6243519;22;20000;-74
2023/04/27 03:00:35;;;;;;;10.33;4.87;;;3.80;99.90;;;;;;6242977;23;20034;-73
2023/04/27 03:03:00;;;;;;;9.03;4.40;;;3.70;99.90;;;;;;6243449;23;20015;-74
2023/04/27 03:05:27;;;;;;;6.90;4.93;;;3.70;99.90;;;;;;6241331;23;20011;-74
2023/04/27 03:07:53;;;;;;;9.50;5.53;;;3.70;99.90;;;;;;6242672;22;20067;-73
2023/04/27 03:10:19;;;;;;;9.53;5.00;;;3.70;99.90;;;;;;6242816;23;20492;-74
2023/04/27 03:12:44;;;;;;;7.60;5.60;;;3.70;99.90;;;;;;6242980;23;20028;-74
2023/04/27 03:15:10;;;;;;;8.07;5.17;;;3.60;99.90;;;;;;6243004;23;20429;-74
2023/04/27 03:17:35;;;;;;;7.53;4.90;;;3.60;99.90;;;;;;6243184;22;20095;-74
2023/04/27 03:20:03;;;;;;;8.23;5.33;;;3.60;99.90;;;;;;6243072;23;19992;-74
2023/04/27 03:22:29;;;;;;;8.90;5.07;;;3.60;99.90;;;;;;6242473;22;20426;-74
2023/04/27 03:24:55;;;;;;;12.83;5.77;;;3.50;99.90;;;;;;6242934;22;20000;-74
2023/04/27 03:27:20;;;;;;;8.80;5.73;;;3.50;99.90;;;;;;6242875;23;20023;-74
2023/04/27 03:29:46;;;;;;;7.13;4.33;;;3.50;99.90;;;;;;6242761;23;20402;-73
2023/04/27 03:32:11;;;;;;;8.10;5.10;;;3.50;99.90;;;;;;6242668;23;20000;-73
2023/04/27 03:34:37;;;;;;;7.67;4.70;;;3.50;99.90;;;;;;6242952;23;20000;-74
2023/04/27 03:37:02;;;;;;;9.13;5.50;;;3.40;99.90;;;;;;6242239;23;20004;-74
2023/04/27 03:39:28;;;;;;;7.50;5.67;;;3.40;99.90;;;;;;6242749;23;20071;-74
2023/04/27 03:41:53;;;;;;;8.57;5.37;;;3.40;99.90;;;;;;6241104;23;20432;-74
2023/04/27 03:44:19;;;;;;;9.10;5.20;;;3.40;99.90;;;;;;6242442;23;20393;-74
2023/04/27 03:46:44;;;;;;;9.13;5.27;;;3.40;99.90;;;;;;6242744;22;20004;-74
2023/04/27 03:49:10;;;;;;;9.67;5.03;;;3.30;99.90;;;;;;6242730;23;20054;-74
2023/04/27 03:51:38;;;;;;;12.00;5.40;;;3.30;99.90;;;;;;6242245;22;20378;-73
2023/04/27 03:54:04;;;;;;;10.97;5.03;;;3.30;99.90;;;;;;6242539;22;19996;-74
2023/04/27 03:56:29;;;;;;;10.23;6.17;;;3.20;99.90;;;;;;6242612;22;20034;-74
2023/04/27 03:58:55;;;;;;;6.90;5.03;;;3.30;99.90;;;;;;6242322;23;20012;-74
2023/04/27 04:01:21;;;;;;;7.83;5.30;;;3.20;99.90;;;;;;6240424;23;20005;-74
2023/04/27 04:03:46;;;;;;;11.20;5.60;;;3.20;99.90;;;;;;6242462;23;20000;-74
2023/04/27 04:06:12;;;;;;;8.93;5.87;;;3.20;99.90;;;;;;6241698;23;20067;-74
2023/04/27 04:08:38;;;;;;;10.73;6.03;;;3.20;99.90;;;;;;6242437;23;20004;-74
2023/04/27 04:11:03;;;;;;;9.27;5.43;;;3.20;99.90;;;;;;6242566;23;20059;-74
2023/04/27 04:13:29;;;;;;;10.57;6.10;;;3.10;99.90;;;;;;6240880;23;20062;-74
2023/04/27 04:16:02;;;;;;;11.47;6.47;;;3.10;99.90;;;;;;6242524;23;20071;-74
2023/04/27 04:18:28;;;;;;;9.90;6.10;;;3.10;99.90;;;;;;6242406;22;20423;-73
2023/04/27 04:20:53;;;;;;;9.27;5.17;;;3.10;99.90;;;;;;6241913;23;20000;-74
2023/04/27 04:23:19;;;;;;;9.60;5.80;;;3.10;99.90;;;;;;6242344;23;20493;-74
2023/04/27 04:25:47;;;;;;;8.77;6.00;;;3.10;99.90;;;;;;6242544;22;20000;-74
2023/04/27 04:28:12;;;;;;;11.33;6.10;;;3.10;99.90;;;;;;6240501;23;20429;-74
2023/04/27 04:30:38;;;;;;;9.23;5.80;;;3.10;99.90;;;;;;6242453;23;20071;-73
2023/04/27 04:33:04;;;;;;;9.10;5.70;;;3.00;99.90;;;;;;6240326;23;20012;-74
2023/04/27 04:35:31;;;;;;;9.27;6.47;;;3.10;99.90;;;;;;6241836;22;20000;-74
2023/04/27 04:37:57;;;;;;;8.27;5.90;;;3.10;99.90;;;;;;6240681;23;20460;-74
2023/04/27 04:40:23;;;;;;;9.13;6.17;;;3.10;99.90;;;;;;6241741;22;20004;-74
2023/04/27 04:42:49;;;;;;;8.20;5.70;;;3.10;99.90;;;;;;6241463;22;20011;-74
2023/04/27 04:45:14;;;;;;;14.03;6.33;;;3.10;99.90;;;;;;6241000;23;20015;-74
2023/04/27 04:47:40;;;;;;;14.27;7.23;;;3.10;99.90;;;;;;6240560;23;20004;-73
2023/04/27 04:50:08;;;;;;;12.47;6.40;;;3.10;99.90;;;;;;6243439;23;20004;-73
2023/04/27 04:52:33;;;;;;;13.33;6.67;;;3.10;99.90;;;;;;6243769;23;20008;-73
2023/04/27 04:54:59;;;;;;;11.70;7.47;;;3.10;99.90;;;;;;6242690;23;20004;-74
2023/04/27 04:57:24;;;;;;;12.70;7.07;;;3.10;99.90;;;;;;6242214;23;20358;-74
2023/04/27 04:59:50;;;;;;;9.67;6.67;;;3.10;99.90;;;;;;6242642;23;20003;-73
2023/04/27 05:02:15;;;;;;;12.03;7.40;;;3.20;99.90;;;;;;6242730;23;20032;-74
2023/04/27 05:04:41;;;;;;;14.23;8.47;;;3.20;99.90;;;;;;6243897;23;19996;-74
2023/04/27 05:07:06;;;;;;;14.97;8.97;;;3.20;99.90;;;;;;6243924;23;20004;-74
2023/04/27 05:09:32;;;;;;;11.27;8.20;;;3.30;99.90;;;;;;6243189;23;20000;-74
2023/04/27 05:12:00;;;;;;;12.07;8.73;;;3.30;99.90;;;;;;6244117;23;20008;-74
2023/04/27 05:14:25;;;;;;;12.50;8.07;;;3.40;99.90;;;;;;6244404;22;20051;-74
2023/04/27 05:16:51;;;;;;;12.67;9.07;;;3.50;99.90;;;;;;6244157;22;20000;-74
2023/04/27 05:19:17;;;;;;;18.40;10.00;;;3.50;99.90;;;;;;6243522;23;19996;-73
2023/04/27 05:21:44;;;;;;;15.83;10.07;;;3.60;99.90;;;;;;6244230;22;20061;-74
2023/04/27 05:24:11;;;;;;;15.17;9.93;;;3.70;99.90;;;;;;6242504;23;20057;-74
2023/04/27 05:26:37;;;;;;;16.63;10.90;;;3.80;99.90;;;;;;6244208;23;20004;-74
2023/04/27 05:29:02;;;;;;;16.73;11.03;;;3.90;99.90;;;;;;6244228;22;20000;-74
2023/04/27 05:31:28;;;;;;;11.67;8.33;;;3.90;99.90;;;;;;6244005;23;20009;-74
2023/04/27 05:33:54;;;;;;;13.27;9.17;;;4.00;99.90;;;;;;6243428;23;20070;-74
2023/04/27 05:36:19;;;;;;;14.07;9.57;;;4.10;99.90;;;;;;6243877;22;20000;-74
2023/04/27 05:38:45;;;;;;;21.60;10.83;;;4.20;99.90;;;;;;6244128;23;20209;-74
2023/04/27 05:41:10;;;;;;;13.77;9.00;;;4.30;99.90;;;;;;6243785;23;20007;-74
2023/04/27 05:43:37;;;;;;;14.13;8.77;;;4.40;99.90;;;;;;6244202;23;20456;-74
2023/04/27 05:46:03;;;;;;;17.67;9.33;;;4.40;99.90;;;;;;6243947;22;20004;-74
2023/04/27 05:48:29;;;;;;;18.60;11.53;;;4.50;99.90;;;;;;6243449;23;20008;-74
2023/04/27 05:51:01;;;;;;;15.40;10.13;;;4.60;99.90;;;;;;6243744;22;20007;-74
2023/04/27 05:53:28;;;;;;;17.10;8.87;;;4.70;99.90;;;;;;6243910;22;20430;-74
2023/04/27 05:55:53;;;;;;;16.57;9.57;;;4.80;99.90;;;;;;6243521;22;20042;-74
2023/04/27 05:58:19;;;;;;;15.13;9.63;;;4.90;99.90;;;;;;6243579;23;20008;-74
2023/04/27 06:00:45;;;;;;;15.77;9.90;;;5.00;99.90;;;;;;6243787;22;20373;-74
2023/04/27 06:03:10;;;;;;;16.97;9.73;;;5.10;99.90;;;;;;6243099;22;20011;-74
2023/04/27 06:05:36;;;;;;;15.40;8.80;;;5.20;99.90;;;;;;6243936;23;20008;-74
2023/04/27 06:08:01;;;;;;;12.23;7.73;;;5.30;99.90;;;;;;6243770;23;20460;-74
2023/04/27 06:10:27;;;;;;;10.23;7.60;;;5.40;99.90;;;;;;6243409;23;20007;-74
2023/04/27 06:12:53;;;;;;;13.20;8.33;;;5.50;99.90;;;;;;6243645;23;20329;-74
2023/04/27 06:15:18;;;;;;;11.50;7.90;;;5.60;99.90;;;;;;6243526;22;20015;-74
2023/04/27 06:17:44;;;;;;;13.20;8.50;;;5.70;99.90;;;;;;6243308;23;20007;-74
2023/04/27 06:20:11;;;;;;;11.60;7.57;;;5.70;99.90;;;;;;6243362;22;20004;-74
2023/04/27 06:22:37;;;;;;;10.87;7.33;;;5.80;99.90;;;;;;6243927;22;20329;-75
2023/04/27 06:25:04;;;;;;;13.13;7.90;;;5.90;99.90;;;;;;6243679;22;20010;-74
2023/04/27 06:27:30;;;;;;;10.80;7.23;;;5.90;99.90;;;;;;6243699;22;20007;-74
2023/04/27 06:29:55;;;;;;;8.93;6.40;;;6.00;99.90;;;;;;6243244;23;20004;-74
2023/04/27 06:32:21;;;;;;;12.57;7.63;;;6.10;99.90;;;;;;6242746;22;20004;-74
2023/04/27 06:34:46;;;;;;;9.97;6.10;;;6.20;99.90;;;;;;6243474;23;19996;-74
2023/04/27 06:37:14;;;;;;;8.73;5.27;;;6.20;99.90;;;;;;6243095;23;20000;-74
2023/04/27 06:39:40;;;;;;;9.20;5.73;;;6.20;99.90;;;;;;6243424;22;20373;-74
2023/04/27 06:42:05;;;;;;;6.90;5.43;;;6.40;99.90;;;;;;6241733;23;20011;-74
2023/04/27 06:44:31;;;;;;;10.30;5.10;;;6.40;99.90;;;;;;6243046;23;20030;-74
2023/04/27 06:46:56;;;;;;;9.23;5.37;;;6.40;99.90;;;;;;6242568;23;20004;-74
2023/04/27 06:49:22;;;;;;;12.60;6.13;;;6.50;99.90;;;;;;6243134;23;20079;-75
2023/04/27 06:51:48;;;;;;;11.80;5.57;;;6.60;99.90;;;;;;6243243;23;20000;-75
2023/04/27 06:54:14;;;;;;;11.23;6.37;;;6.60;99.90;;;;;;6242922;22;19993;-75
2023/04/27 06:56:39;;;;;;;10.77;6.20;;;6.70;99.90;;;;;;6243463;22;20071;-75
2023/04/27 06:59:05;;;;;;;12.27;6.73;;;6.80;99.90;;;;;;6242987;23;20071;-75
2023/04/27 07:01:30;;;;;;;10.70;7.43;;;6.80;99.90;;;;;;6242722;22;20015;-74
2023/04/27 07:03:56;;;;;;;12.17;7.63;;;7.00;99.90;;;;;;6243264;23;20000;-74
2023/04/27 07:06:24;;;;;;;11.90;7.40;;;7.00;99.90;;;;;;6243189;23;20004;-74
2023/04/27 07:08:49;;;;;;;12.03;6.50;;;7.10;99.90;;;;;;6247325;22;20023;-74
2023/04/27 07:11:15;;;;;;;10.67;6.33;;;7.20;99.90;;;;;;6252802;23;20073;-74
2023/04/27 07:13:41;;;;;;;10.73;6.10;;;7.30;99.90;;;;;;6244830;23;20303;-75
2023/04/27 07:16:06;;;;;;;11.87;6.60;;;7.40;99.90;;;;;;6243211;22;19996;-75
2023/04/27 07:18:32;;;;;;;10.83;6.30;;;7.50;99.90;;;;;;6243522;23;20438;-74
2023/04/27 07:20:57;;;;;;;9.50;6.40;;;7.60;99.90;;;;;;6244335;23;20000;-75
2023/04/27 07:23:23;;;;;;;7.80;5.70;;;7.70;99.90;;;;;;6243449;23;20100;-75
2023/04/27 07:25:49;;;;;;;10.53;7.47;;;7.70;99.90;;;;;;6243828;23;20001;-76
2023/04/27 07:28:15;;;;;;;10.10;6.10;;;7.90;99.90;;;;;;6242711;23;20000;-74
2023/04/27 07:30:41;;;;;;;9.43;5.20;;;8.00;99.90;;;;;;6242417;23;20000;-75
2023/04/27 07:33:08;;;;;;;7.00;5.07;;;8.10;99.90;;;;;;6242367;22;20015;-75
2023/04/27 07:35:35;;;;;;;8.07;4.00;;;8.20;99.90;;;;;;6242917;22;20000;-75
2023/04/27 07:38:01;;;;;;;6.90;3.50;;;8.20;99.90;;;;;;6243005;22;20007;-75
2023/04/27 07:40:27;;;;;;;8.50;3.80;;;8.30;99.90;;;;;;6242734;22;20004;-75
2023/04/27 07:42:53;;;;;;;6.00;3.60;;;8.50;99.90;;;;;;6241959;22;20418;-75
2023/04/27 07:45:20;;;;;;;6.60;2.93;;;8.60;99.90;;;;;;6242818;22;20438;-76
2023/04/27 07:47:46;;;;;;;6.03;3.13;;;8.70;99.90;;;;;;6240101;23;20008;-75
2023/04/27 07:50:13;;;;;;;5.80;3.33;;;8.80;99.90;;;;;;6241792;22;20383;-76
2023/04/27 07:52:39;;;;;;;5.07;3.47;;;8.90;99.90;;;;;;6241004;23;20011;-76
2023/04/27 07:55:05;;;;;;;4.30;2.90;;;9.00;99.90;;;;;;6242525;22;20383;-76
2023/04/27 07:57:30;;;;;;;7.70;3.47;;;9.10;99.50;;;;;;6241454;22;20057;-76
2023/04/27 07:59:56;;;;;;;9.97;4.13;;;9.20;99.30;;;;;;6242335;23;20004;-76
2023/04/27 08:02:22;;;;;;;8.07;3.87;;;9.30;98.70;;;;;;6241391;22;20440;-75
2023/04/27 08:04:48;;;;;;;6.80;3.40;;;9.40;98.80;;;;;;6242225;23;20076;-75
2023/04/27 08:07:15;;;;;;;4.37;3.13;;;9.50;98.50;;;;;;6241812;23;20005;-76
2023/04/27 08:09:41;;;;;;;6.20;3.60;;;9.60;98.30;;;;;;6242291;22;20004;-76
2023/04/27 08:12:06;;;;;;;5.47;3.43;;;9.70;98.00;;;;;;6241518;23;20016;-76
2023/04/27 08:14:35;;;;;;;7.20;4.50;;;9.80;97.90;;;;;;6240376;23;20337;-77
2023/04/27 08:17:01;;;;;;;9.55;4.07;;;10.00;97.70;;;;;;6241635;23;20008;-77
2023/04/27 08:19:26;;;;;;;10.47;4.63;;;10.10;97.50;;;;;;6241814;22;20058;-76
2023/04/27 08:21:52;;;;;;;7.50;4.28;;;10.20;97.40;;;;;;6242534;23;20449;-76
2023/04/27 08:24:19;;;;;;;4.72;3.55;;;10.30;97.20;;;;;;6242268;23;20078;-77
2023/04/27 08:26:45;;;;;;;5.65;3.08;;;10.40;96.70;;;;;;6241910;22;20008;-76
2023/04/27 08:29:11;;;;;;;9.75;4.30;;;10.40;95.80;;;;;;6240353;23;20008;-75
2023/04/27 08:31:36;;;;;;;6.57;3.97;;;10.60;95.80;;;;;;6240478;23;20008;-75
2023/04/27 08:34:02;;;;;;;3.88;2.80;;;10.60;95.60;;;;;;6242297;23;20468;-75
2023/04/27 08:36:27;;;;;;;6.50;3.28;;;10.80;94.90;;;;;;6240238;23;20384;-75
2023/04/27 08:38:53;;;;;;;4.32;2.72;;;10.90;94.70;;;;;;6241016;23;20008;-75
2023/04/27 08:41:22;;;;;;;4.97;3.35;;;11.00;94.20;;;;;;6241170;23;20035;-76
2023/04/27 08:43:50;;;;;;;3.65;2.33;;;11.00;93.70;;;;;;6241317;22;20075;-75
2023/04/27 08:46:23;;;;;;;7.25;4.13;;;11.10;93.90;;;;;;6241769;22;20000;-75
2023/04/27 08:48:50;;;;;;;4.18;2.80;;;11.20;93.30;;;;;;6242634;22;20056;-75
2023/04/27 08:51:16;;;;;;;8.85;2.97;;;11.30;93.30;;;;;;6241776;22;20003;-75
2023/04/27 08:53:54;;;;;;;8.98;3.78;;;11.40;93.00;;;;;;6242227;23;20075;-75
2023/04/27 08:56:22;;;;;;;6.13;3.75;;;11.40;92.20;;;;;;6241534;22;20028;-75
2023/04/27 08:58:48;;;;;;;3.33;2.92;;;11.40;92.20;;;;;;6242348;22;20007;-75
2023/04/27 09:01:13;;;;;;;5.63;3.08;;;11.50;91.80;;;;;;6242112;22;20039;-76
2023/04/27 09:03:39;;;;;;;4.85;3.35;;;11.50;91.60;;;;;;6242443;22;20011;-75
2023/04/27 09:06:06;;;;;;;7.20;3.67;;;11.60;91.40;;;;;;6242073;22;20422;-75
2023/04/27 09:08:50;;;;;;;6.63;4.47;;;11.70;91.40;;;;;;6242175;22;20000;-76
2023/04/27 09:11:28;;;;;;;10.85;3.90;;;11.80;91.40;;;;;;6241348;22;20438;-75
2023/04/27 09:13:54;;;;;;;6.43;2.88;;;11.90;91.30;;;;;;6240870;22;20000;-76
2023/04/27 09:16:24;;;;;;;4.30;3.13;;;11.90;90.80;;;;;;6241106;23;20026;-78
2023/04/27 09:18:50;;;;;;;6.20;3.65;;;12.00;90.20;;;;;;6241756;22;20000;-77
2023/04/27 09:21:47;;;;;;;5.63;2.85;;;12.00;89.70;;;;;;6239380;23;20011;-76
2023/04/27 09:24:13;;;;;;;4.50;2.60;;;12.00;88.60;;;;;;6217922;22;20004;-76
2023/04/27 09:26:41;;;;;;;6.20;2.80;;;12.00;88.70;;;;;;6241171;23;20034;-75
2023/04/27 09:29:07;;;;;;;5.47;2.50;;;12.00;88.30;;;;;;6240139;23;20008;-76
2023/04/27 09:31:34;;;;;;;6.90;3.03;;;12.10;87.90;;;;;;6242414;22;20004;-75
2023/04/27 09:33:59;;;;;;;5.35;2.38;;;12.10;87.00;;;;;;6245846;23;20012;-78
2023/04/27 09:36:25;;;;;;;2.88;1.90;;;12.10;86.70;;;;;;6252812;23;20007;-77
2023/04/27 09:38:51;;;;;;;4.68;2.17;;;12.20;86.30;;;;;;6242077;23;20031;-77
2023/04/27 09:41:18;;;;;;;3.00;2.00;;;12.20;84.60;;;;;;6245063;22;20088;-75
2023/04/27 09:43:44;;;;;;;6.13;2.80;;;12.30;83.70;;;;;;6246737;22;20297;-76
2023/04/27 09:46:12;;;;;;;3.15;2.45;;;12.30;83.20;;;;;;6241131;23;20059;-75
2023/04/27 09:48:38;;;;;;;5.40;2.40;;;12.40;83.10;;;;;;6241744;22;20004;-76
2023/04/27 09:51:04;;;;;;;6.68;2.90;;;12.40;82.90;;;;;;6241340;22;20005;-76
2023/04/27 09:53:37;;;;;;;4.43;3.00;;;12.50;81.80;;;;;;6240897;22;20003;-75
2023/04/27 09:56:50;;;;;;;7.28;3.00;;;12.60;79.50;;;;;;6242654;22;20095;-75
2023/04/27 09:59:39;;;;;;;5.18;3.15;;;12.60;78.80;;;;;;6120445;23;20078;-75
2023/04/27 10:02:06;;;;;;;5.38;3.45;;;12.60;77.80;;;;;;6120799;23;20384;-75
2023/04/27 10:05:06;;;;;;;3.85;3.10;;;12.60;78.30;;;;;;6120423;23;20005;-77
2023/04/27 10:07:32;;;;;;;3.75;2.20;;;12.60;77.80;;;;;;6120624;23;20463;-78
2023/04/27 10:10:01;;;;;;;12.27;3.22;;;12.60;78.30;;;;;;6120624;23;20026;-78
2023/04/27 10:12:35;;;;;;;4.82;3.05;;;12.70;78.30;;;;;;6120617;23;20017;-79
2023/04/27 10:15:13;;;;;;;5.65;3.25;;;12.80;77.50;;;;;;6121345;23;20096;-78
2023/04/27 10:17:47;;;;;;;7.38;3.30;;;12.90;77.50;;;;;;6121038;23;20002;-79
2023/04/27 10:20:12;;;;;;;4.85;2.97;;;12.90;76.80;;;;;;6121077;23;20077;-76
2023/04/27 10:22:43;;;;;;;5.72;2.97;;;13.00;76.50;;;;;;6120667;23;20033;-77
2023/04/27 10:25:24;;;;;;;5.90;2.22;;;13.10;76.90;;;;;;6120721;23;20002;-78
2023/04/27 10:27:54;;;;;;;5.78;3.70;;;13.20;76.60;;;;;;6120422;23;20006;-77
2023/04/27 10:30:22;;;;;;;4.03;3.47;;;13.30;75.70;;;;;;6198424;23;20008;-79
2023/04/27 10:32:52;;;;;;;3.35;3.05;;;13.30;75.60;;;;;;6242744;22;20020;-77
2023/04/27 10:35:20;;;;;;;4.97;3.50;;;13.40;75.50;;;;;;6242796;22;20004;-81
2023/04/27 10:37:46;;;;;;;4.35;3.10;;;13.40;74.40;;;;;;6242492;22;19996;-78
2023/04/27 10:40:16;;;;;;;6.95;3.50;;;13.40;74.90;;;;;;6241114;23;20024;-77
2023/04/27 10:42:48;;;;;;;5.50;3.85;;;13.40;74.20;;;;;;6242334;22;20099;-77
2023/04/27 10:45:14;;;;;;;3.75;2.97;;;13.40;73.20;;;;;;6242923;22;20003;-76
2023/04/27 10:47:44;;;;;;;4.55;2.80;;;13.40;73.60;;;;;;6242968;22;19996;-76
2023/04/27 10:50:12;;;;;;;5.78;3.25;;;13.40;72.70;;;;;;6243004;22;20003;-76
2023/04/27 10:52:47;;;;;;;9.02;3.90;;;13.40;73.40;;;;;;6242150;22;20004;-76
2023/04/27 10:55:20;;;;;;;6.18;3.63;;;13.40;73.60;;;;;;6242547;23;20011;-76
2023/04/27 10:57:51;;;;;;;3.95;2.80;;;13.50;72.60;;;;;;6242723;22;20066;-76
2023/04/27 11:00:22;;;;;;;3.75;2.90;;;13.50;73.10;;;;;;6242649;22;20342;-76
2023/04/27 11:02:48;;;;;;;6.80;3.13;;;13.50;72.90;;;;;;6242902;23;20069;-77
2023/04/27 11:05:23;;;;;;;3.92;3.42;;;13.50;73.00;;;;;;6242512;23;20434;-76
2023/04/27 11:07:50;;;;;;;4.82;3.72;;;13.50;73.30;;;;;;6241634;22;20075;-78
2023/04/27 11:10:19;;;;;;;6.25;3.15;;;13.50;72.10;;;;;;6242405;23;20077;-79
2023/04/27 11:12:45;;;;;;;4.90;3.67;;;13.50;71.90;;;;;;6242527;23;20007;-76
2023/04/27 11:15:12;;;;;;;3.70;3.20;;;13.50;71.50;;;;;;6240756;23;20124;-75
2023/04/27 11:17:39;;;;;;;8.35;3.35;;;13.50;71.40;;;;;;6242778;22;19996;-78
2023/04/27 11:20:07;;;;;;;4.60;3.10;;;13.50;71.70;;;;;;6242254;22;20075;-76
2023/04/27 11:22:33;;;;;;;4.22;3.28;;;13.50;71.40;;;;;;6241411;22;20330;-76
2023/04/27 11:24:59;;;;;;;6.80;4.28;;;13.60;71.40;;;;;;6241234;22;20504;-75
2023/04/27 11:27:36;;;;;;;6.00;4.03;;;13.60;69.80;;;;;;6240905;22;20007;-77
2023/04/27 11:30:01;;;;;;;5.50;4.15;;;13.50;69.50;;;;;;6242283;22;20000;-76
2023/04/27 11:32:27;;;;;;;4.20;3.80;;;13.40;70.30;;;;;;6240172;23;20039;-80
2023/04/27 11:34:53;;;;;;;7.25;3.25;;;13.40;71.10;;;;;;6241656;23;20063;-75
2023/04/27 11:37:23;;;;;;;6.75;3.60;;;13.40;71.40;;;;;;6241659;23;20240;-75
2023/04/27 11:39:49;;;;;;;3.75;3.30;;;13.50;71.80;;;;;;6242863;22;20325;-75
2023/04/27 11:42:24;;;;;;;6.22;3.97;;;13.50;71.90;;;;;;6242545;22;20050;-74
2023/04/27 11:44:58;;;;;;;6.15;4.00;;;13.50;71.70;;;;;;6242725;23;20022;-74
2023/04/27 11:47:26;;;;;;;4.88;4.32;;;13.50;71.40;;;;;;6242905;22;20425;-75
2023/04/27 11:49:55;;;;;;;5.13;3.80;;;13.40;70.50;;;;;;6243216;23;20434;-76
2023/04/27 11:52:21;;;;;;;5.15;4.05;;;13.40;70.20;;;;;;6243429;22;20081;-74
2023/04/27 11:54:52;;;;;;;8.00;3.92;;;13.30;70.50;;;;;;6242839;22;20001;-74
2023/04/27 11:57:27;;;;;;;8.30;3.13;;;13.40;71.40;;;;;;6243007;22;20004;-74
2023/04/27 11:59:54;;;;;;;4.45;4.05;;;13.40;71.50;;;;;;6245301;22;20575;-76
2023/04/27 12:02:22;;;;;;;7.78;4.28;;;13.50;71.80;;;;;;6243075;22;20030;-74
2023/04/27 12:04:49;;;;;;;5.90;4.18;;;13.60;71.90;;;;;;6242297;22;20046;-74
2023/04/27 12:07:15;;;;;;;7.57;4.10;;;13.70;71.90;;;;;;6240263;23;20012;-74
2023/04/27 12:09:42;;;;;;;7.68;4.15;;;13.80;71.80;;;;;;6242056;22;20000;-75
2023/04/27 12:12:08;;;;;;;5.75;3.95;;;13.90;71.00;;;;;;6241677;22;20006;-74
2023/04/27 12:14:33;;;;;;;6.63;4.20;;;14.00;70.90;;;;;;6241717;22;20004;-75
2023/04/27 12:16:59;;;;;;;4.30;3.90;;;14.00;71.00;;;;;;6242360;23;20448;-75
2023/04/27 12:19:25;;;;;;;5.03;3.80;;;14.00;70.60;;;;;;6240982;22;20000;-74
2023/04/27 12:21:54;;;;;;;4.65;3.80;;;14.00;70.40;;;;;;6241670;23;20028;-74
2023/04/27 12:24:20;;;;;;;7.70;4.10;;;14.00;70.00;;;;;;6242204;23;20004;-75
2023/04/27 12:26:46;;;;;;;6.60;4.22;;;14.00;70.20;;;;;;6241981;22;20004;-75
2023/04/27 12:29:12;;;;;;;6.13;4.80;;;14.00;69.90;;;;;;6241897;22;20008;-75
2023/04/27 12:31:38;;;;;;;6.97;4.47;;;14.00;69.40;;;;;;6242347;22;20504;-75
2023/04/27 12:34:03;;;;;;;7.15;5.07;;;14.10;69.40;;;;;;6240337;23;20016;-75
2023/04/27 12:36:29;;;;;;;5.43;4.38;;;14.00;68.40;;;;;;6241936;23;20031;-75
2023/04/27 12:39:10;;;;;;;7.60;5.18;;;14.00;68.90;;;;;;6242219;23;20008;-76
2023/04/27 12:41:36;;;;;;;4.78;4.05;;;14.10;69.00;;;;;;6242502;22;20004;-75
2023/04/27 12:44:01;;;;;;;5.07;4.57;;;14.10;69.20;;;;;;6242044;23;20122;-75
2023/04/27 12:46:27;;;;;;;6.80;4.47;;;14.20;68.40;;;;;;6241657;23;20084;-76
2023/04/27 12:48:52;;;;;;;4.15;3.20;;;14.30;69.00;;;;;;6241431;23;20007;-76